Apple Springs, TX

1:34 AM CDT on July 31, 2014 (GMT -0500)
Angelina County (KLFK) Elev 289 ft | 31.24 °N, 94.75 °W | Change Station

Current weather conditions updated 41 minutes ago

Clear
Clear
77 °F
Feels Like 77 °F
N
5
Wind Variable Wind from SSE

Today is forecast to be nearly the same temperature as yesterday. Scattered thunderstorms tonight.

Today
High -- | Low -- °F
--% Chance of Precip.
Yesterday
High -- | Low -- °F
Precip. -- in
6:36 AM 8:16 PM
Waxing Crescent, 16% visible
Pressure 30.00 in
Visibility 10.0 miles
Clouds Clear
Dew Point 70 °F
Humidity 78%
Rainfall 0.00 in
Snow Depth Not available.
UV 0 out of 12
Pollen 3.40 out of 12
Air Quality Not available.
Flu Activity Not available.
METAR KLFK 310553Z AUTO 15004KT 10SM CLR 25/21 A3000

More Conditions Fewer Conditions

Pressure 30.00 in
Visibility 10.0 miles
Clouds Clear
Dew Point 70 °F
Humidity 78%
Rainfall 0.00 in
Snow Depth Not available.
UV 0 out of 12
Pollen 3.40 out of 12
Air Quality Not available.
Flu Activity Not available.
METAR KLFK 310553Z AUTO 15004KT 10SM CLR 25/21 A3000

More Conditions Fewer Conditions

10-Day Weather Forecast

Almanac

Astronomy

Jul. 31, 2014 Rise Set
Actual Time 6:36 AM CDT 8:16 PM CDT
Civil Twilight 6:09 AM CDT 8:42 PM CDT
Nautical Twilight 5:37 AM CDT 9:14 PM CDT
Astronomical Twilight 5:04 AM CDT 9:47 PM CDT
Moon 10:43 AM CDT 10:51 PM CDT
Length of Visible Light 14h 32m
Length of Day
13h 40m
Tomorrow will be 1m 24s shorter.
Waxing Crescent, 16% of the Moon is Illuminated
Today
Waxing Crescent
Aug 3
First Quarter
Aug 10
Full
Aug 17
Last Quarter
Aug 25
New

Today's Extremes

State Highs State Lows

Community

WunderPhotos

Upload Photos

1,739,251 photos uploaded!

Nearby

Snow Depth

Station Depth Elevation
No new snow has been reported.

Earthquake Activity

City Distance Mag. Time & Date
No recent earthquake activity has been reported nearby.
Minimum magnitude displayed is 2.5.

Coastal Water Temperatures

Place Temperature
No Stations Reporting

Nearby Weather Stations

Station Location Temp. Heat Index Dew Point Humidity Wind Precip. Elev Updated Type
Old Bonner Road, Lufkin, TX 73.2 °F 71 °F 70 °F 89% East  at  0.0 mph - / hr 282 ft 1:28 AM CDT Normal
RAWS LUFKIN TX, Lufkin, TX 76 °F 76 °F 74 °F 92% SSE  at  2 mph 0.00 in / hr 154 ft 1:03 AM CDT MADIS
MesoWest BURKE , Lufkin, TX 81 °F 79 °F - - North  at  - 0.00 in / hr 271 ft 11:45 PM CDT MADIS
CITY OF HUDSON, Lufkin, TX 75.4 °F 75 °F 73 °F 92% SSW  at  2.5 mph 0.00 in / hr 351 ft 1:34 AM CDT Rapid Fire
RAWS RATCLIFF TX, Ratcliff, TX 74 °F 74 °F 69 °F 84% North  at  0 mph 0.00 in / hr 434 ft 1:02 AM CDT MADIS
MesoWest PROSER , Lufkin, TX 84 °F 81 °F - - North  at  - 0.00 in / hr 254 ft 10:55 PM CDT MADIS
MesoWest CORIGN , Barnum, TX 82 °F 80 °F - - North  at  - 0.00 in / hr 217 ft 12:10 AM CDT MADIS
Huntington, Texas, Huntington, TX 74.2 °F 74 °F 69 °F 83% SE  at  0.0 mph 0.00 in / hr 274 ft 1:28 AM CDT Normal

Show More Stations Show Fewer Stations